sensor_id;sensor_type;location;lat;lon;timestamp;P1;durP1;ratioP1;P2;durP2;ratioP2
22282;SDS011;11310;51.528;21.204;2024-03-22T00:01:55;27.88;;;10.77;;
22282;SDS011;11310;51.528;21.204;2024-03-22T00:04:22;23.45;;;10.70;;
22282;SDS011;11310;51.528;21.204;2024-03-22T00:06:49;23.55;;;11.27;;
22282;SDS011;11310;51.528;21.204;2024-03-22T00:09:16;25.33;;;10.73;;
22282;SDS011;11310;51.528;21.204;2024-03-22T00:11:45;21.98;;;10.23;;
22282;SDS011;11310;51.528;21.204;2024-03-22T00:14:12;26.48;;;11.30;;
22282;SDS011;11310;51.528;21.204;2024-03-22T00:16:39;20.75;;;10.25;;
22282;SDS011;11310;51.528;21.204;2024-03-22T00:19:06;24.50;;;11.38;;
22282;SDS011;11310;51.528;21.204;2024-03-22T00:21:33;24.45;;;11.00;;
22282;SDS011;11310;51.528;21.204;2024-03-22T00:24:02;32.42;;;11.95;;
22282;SDS011;11310;51.528;21.204;2024-03-22T00:26:29;23.27;;;10.63;;
22282;SDS011;11310;51.528;21.204;2024-03-22T00:28:57;22.90;;;10.82;;
22282;SDS011;11310;51.528;21.204;2024-03-22T00:31:24;28.45;;;10.95;;
22282;SDS011;11310;51.528;21.204;2024-03-22T00:33:51;23.90;;;11.75;;
22282;SDS011;11310;51.528;21.204;2024-03-22T00:36:18;24.40;;;10.95;;
22282;SDS011;11310;51.528;21.204;2024-03-22T00:38:46;23.50;;;10.82;;
22282;SDS011;11310;51.528;21.204;2024-03-22T00:41:13;27.73;;;11.85;;
22282;SDS011;11310;51.528;21.204;2024-03-22T00:43:40;25.38;;;11.27;;
22282;SDS011;11310;51.528;21.204;2024-03-22T00:46:09;23.23;;;11.32;;
22282;SDS011;11310;51.528;21.204;2024-03-22T00:48:38;26.13;;;12.10;;
22282;SDS011;11310;51.528;21.204;2024-03-22T00:51:05;26.30;;;11.63;;
22282;SDS011;11310;51.528;21.204;2024-03-22T00:53:32;23.67;;;10.90;;
22282;SDS011;11310;51.528;21.204;2024-03-22T00:56:00;25.25;;;11.82;;
22282;SDS011;11310;51.528;21.204;2024-03-22T00:58:26;24.70;;;11.75;;
22282;SDS011;11310;51.528;21.204;2024-03-22T01:00:54;28.17;;;11.20;;
22282;SDS011;11310;51.528;21.204;2024-03-22T01:03:22;29.60;;;11.55;;
22282;SDS011;11310;51.528;21.204;2024-03-22T01:05:49;26.50;;;11.27;;
22282;SDS011;11310;51.528;21.204;2024-03-22T01:08:15;24.52;;;11.45;;
22282;SDS011;11310;51.528;21.204;2024-03-22T01:10:43;27.80;;;11.60;;
22282;SDS011;11310;51.528;21.204;2024-03-22T01:13:09;22.95;;;10.88;;
22282;SDS011;11310;51.528;21.204;2024-03-22T01:15:36;26.33;;;11.82;;
22282;SDS011;11310;51.528;21.204;2024-03-22T01:18:03;25.80;;;11.77;;
22282;SDS011;11310;51.528;21.204;2024-03-22T01:20:32;28.10;;;12.52;;
22282;SDS011;11310;51.528;21.204;2024-03-22T01:22:59;30.35;;;12.77;;
22282;SDS011;11310;51.528;21.204;2024-03-22T01:25:27;29.38;;;13.50;;
22282;SDS011;11310;51.528;21.204;2024-03-22T01:27:53;30.65;;;12.70;;
22282;SDS011;11310;51.528;21.204;2024-03-22T01:30:20;27.30;;;12.82;;
22282;SDS011;11310;51.528;21.204;2024-03-22T01:32:46;27.20;;;12.40;;
22282;SDS011;11310;51.528;21.204;2024-03-22T01:35:15;26.67;;;12.35;;
22282;SDS011;11310;51.528;21.204;2024-03-22T01:37:42;26.83;;;12.43;;
22282;SDS011;11310;51.528;21.204;2024-03-22T01:40:10;30.13;;;13.20;;
22282;SDS011;11310;51.528;21.204;2024-03-22T01:42:37;34.15;;;13.57;;
22282;SDS011;11310;51.528;21.204;2024-03-22T01:45:04;28.75;;;13.15;;
22282;SDS011;11310;51.528;21.204;2024-03-22T01:47:31;32.58;;;14.45;;
22282;SDS011;11310;51.528;21.204;2024-03-22T01:49:59;28.92;;;14.93;;
22282;SDS011;11310;51.528;21.204;2024-03-22T01:52:27;26.60;;;13.75;;
22282;SDS011;11310;51.528;21.204;2024-03-22T01:54:56;28.15;;;14.55;;
22282;SDS011;11310;51.528;21.204;2024-03-22T01:57:22;29.25;;;14.15;;
22282;SDS011;11310;51.528;21.204;2024-03-22T01:59:50;28.27;;;12.90;;
22282;SDS011;11310;51.528;21.204;2024-03-22T02:02:19;30.45;;;13.25;;
22282;SDS011;11310;51.528;21.204;2024-03-22T02:04:49;33.45;;;13.40;;
22282;SDS011;11310;51.528;21.204;2024-03-22T02:07:16;27.00;;;12.82;;
22282;SDS011;11310;51.528;21.204;2024-03-22T02:09:45;27.98;;;12.77;;
22282;SDS011;11310;51.528;21.204;2024-03-22T02:12:13;31.83;;;13.75;;
22282;SDS011;11310;51.528;21.204;2024-03-22T02:14:41;31.80;;;13.85;;
22282;SDS011;11310;51.528;21.204;2024-03-22T02:17:08;30.13;;;12.73;;
22282;SDS011;11310;51.528;21.204;2024-03-22T02:19:35;27.17;;;12.75;;
22282;SDS011;11310;51.528;21.204;2024-03-22T02:22:01;28.02;;;12.57;;
22282;SDS011;11310;51.528;21.204;2024-03-22T02:24:30;27.13;;;12.82;;
22282;SDS011;11310;51.528;21.204;2024-03-22T02:26:57;30.23;;;13.07;;
22282;SDS011;11310;51.528;21.204;2024-03-22T02:29:25;28.83;;;14.13;;
22282;SDS011;11310;51.528;21.204;2024-03-22T02:31:51;32.35;;;15.68;;
22282;SDS011;11310;51.528;21.204;2024-03-22T02:34:18;35.72;;;15.25;;
22282;SDS011;11310;51.528;21.204;2024-03-22T02:36:45;33.50;;;15.15;;
22282;SDS011;11310;51.528;21.204;2024-03-22T02:39:12;30.08;;;14.63;;
22282;SDS011;11310;51.528;21.204;2024-03-22T02:41:40;27.23;;;13.82;;
22282;SDS011;11310;51.528;21.204;2024-03-22T02:44:07;28.70;;;13.57;;
22282;SDS011;11310;51.528;21.204;2024-03-22T02:46:33;28.65;;;14.05;;
22282;SDS011;11310;51.528;21.204;2024-03-22T02:49:01;25.92;;;13.25;;
22282;SDS011;11310;51.528;21.204;2024-03-22T02:51:27;26.90;;;13.55;;
22282;SDS011;11310;51.528;21.204;2024-03-22T02:53:54;25.75;;;12.35;;
22282;SDS011;11310;51.528;21.204;2024-03-22T02:56:20;29.88;;;14.07;;
22282;SDS011;11310;51.528;21.204;2024-03-22T02:58:50;25.75;;;12.85;;
22282;SDS011;11310;51.528;21.204;2024-03-22T03:01:16;25.10;;;12.70;;
22282;SDS011;11310;51.528;21.204;2024-03-22T03:03:43;26.23;;;12.60;;
22282;SDS011;11310;51.528;21.204;2024-03-22T03:06:10;24.42;;;12.77;;
22282;SDS011;11310;51.528;21.204;2024-03-22T03:08:38;28.88;;;12.80;;
22282;SDS011;11310;51.528;21.204;2024-03-22T03:11:04;25.98;;;11.77;;
22282;SDS011;11310;51.528;21.204;2024-03-22T03:13:32;27.98;;;12.15;;
22282;SDS011;11310;51.528;21.204;2024-03-22T03:16:00;28.85;;;13.40;;
22282;SDS011;11310;51.528;21.204;2024-03-22T03:18:27;29.13;;;13.30;;
22282;SDS011;11310;51.528;21.204;2024-03-22T03:20:53;26.48;;;13.07;;
22282;SDS011;11310;51.528;21.204;2024-03-22T03:23:21;27.90;;;12.18;;
22282;SDS011;11310;51.528;21.204;2024-03-22T03:25:47;30.52;;;13.88;;
22282;SDS011;11310;51.528;21.204;2024-03-22T03:28:15;28.98;;;12.80;;
22282;SDS011;11310;51.528;21.204;2024-03-22T03:30:42;33.95;;;16.33;;
22282;SDS011;11310;51.528;21.204;2024-03-22T03:33:10;33.80;;;15.85;;
22282;SDS011;11310;51.528;21.204;2024-03-22T03:35:36;38.05;;;15.95;;
22282;SDS011;11310;51.528;21.204;2024-03-22T03:38:04;33.95;;;14.80;;
22282;SDS011;11310;51.528;21.204;2024-03-22T03:40:30;30.27;;;14.60;;
22282;SDS011;11310;51.528;21.204;2024-03-22T03:42:57;26.63;;;12.88;;
22282;SDS011;11310;51.528;21.204;2024-03-22T03:45:24;26.88;;;13.50;;
22282;SDS011;11310;51.528;21.204;2024-03-22T03:47:51;26.60;;;13.07;;
22282;SDS011;11310;51.528;21.204;2024-03-22T03:50:19;27.80;;;13.18;;
22282;SDS011;11310;51.528;21.204;2024-03-22T03:52:47;27.88;;;13.18;;
22282;SDS011;11310;51.528;21.204;2024-03-22T03:55:13;28.20;;;13.35;;
22282;SDS011;11310;51.528;21.204;2024-03-22T03:57:40;30.52;;;13.80;;
22282;SDS011;11310;51.528;21.204;2024-03-22T04:00:07;28.52;;;14.50;;
22282;SDS011;11310;51.528;21.204;2024-03-22T04:02:35;25.38;;;13.45;;
22282;SDS011;11310;51.528;21.204;2024-03-22T04:05:01;28.33;;;14.27;;
22282;SDS011;11310;51.528;21.204;2024-03-22T04:07:30;30.98;;;14.93;;
22282;SDS011;11310;51.528;21.204;2024-03-22T04:09:56;34.90;;;15.27;;
22282;SDS011;11310;51.528;21.204;2024-03-22T04:12:27;29.15;;;14.02;;
22282;SDS011;11310;51.528;21.204;2024-03-22T04:14:54;27.83;;;13.93;;
22282;SDS011;11310;51.528;21.204;2024-03-22T04:17:21;32.95;;;15.05;;
22282;SDS011;11310;51.528;21.204;2024-03-22T04:19:49;30.38;;;15.43;;
22282;SDS011;11310;51.528;21.204;2024-03-22T04:22:15;32.15;;;14.55;;
22282;SDS011;11310;51.528;21.204;2024-03-22T04:24:44;30.63;;;14.50;;
22282;SDS011;11310;51.528;21.204;2024-03-22T04:27:10;33.10;;;14.82;;
22282;SDS011;11310;51.528;21.204;2024-03-22T04:29:38;33.67;;;15.57;;
22282;SDS011;11310;51.528;21.204;2024-03-22T04:32:06;28.15;;;14.35;;
22282;SDS011;11310;51.528;21.204;2024-03-22T04:34:33;32.97;;;14.98;;
22282;SDS011;11310;51.528;21.204;2024-03-22T04:37:03;28.50;;;14.32;;
22282;SDS011;11310;51.528;21.204;2024-03-22T04:39:31;34.47;;;14.98;;
22282;SDS011;11310;51.528;21.204;2024-03-22T04:41:59;30.08;;;14.82;;
22282;SDS011;11310;51.528;21.204;2024-03-22T04:44:29;26.65;;;13.68;;
22282;SDS011;11310;51.528;21.204;2024-03-22T04:46:57;32.45;;;15.13;;
22282;SDS011;11310;51.528;21.204;2024-03-22T04:49:24;27.52;;;14.10;;
22282;SDS011;11310;51.528;21.204;2024-03-22T04:51:51;30.35;;;14.25;;
22282;SDS011;11310;51.528;21.204;2024-03-22T04:54:17;29.90;;;14.27;;
22282;SDS011;11310;51.528;21.204;2024-03-22T04:56:45;30.20;;;15.05;;
22282;SDS011;11310;51.528;21.204;2024-03-22T04:59:13;30.88;;;15.65;;
22282;SDS011;11310;51.528;21.204;2024-03-22T05:01:41;30.25;;;14.25;;
22282;SDS011;11310;51.528;21.204;2024-03-22T05:04:10;26.15;;;13.25;;
22282;SDS011;11310;51.528;21.204;2024-03-22T05:06:38;31.65;;;12.93;;
22282;SDS011;11310;51.528;21.204;2024-03-22T05:09:04;26.83;;;13.05;;
22282;SDS011;11310;51.528;21.204;2024-03-22T05:11:32;27.50;;;13.93;;
22282;SDS011;11310;51.528;21.204;2024-03-22T05:13:58;25.50;;;13.63;;
22282;SDS011;11310;51.528;21.204;2024-03-22T05:16:27;32.65;;;14.52;;
22282;SDS011;11310;51.528;21.204;2024-03-22T05:18:53;29.17;;;13.77;;
22282;SDS011;11310;51.528;21.204;2024-03-22T05:21:21;30.05;;;14.48;;
22282;SDS011;11310;51.528;21.204;2024-03-22T05:23:48;29.92;;;14.25;;
22282;SDS011;11310;51.528;21.204;2024-03-22T05:26:15;27.75;;;14.00;;
22282;SDS011;11310;51.528;21.204;2024-03-22T05:28:44;28.35;;;13.85;;
22282;SDS011;11310;51.528;21.204;2024-03-22T05:31:12;27.67;;;14.05;;
22282;SDS011;11310;51.528;21.204;2024-03-22T05:33:41;29.83;;;14.07;;
22282;SDS011;11310;51.528;21.204;2024-03-22T05:36:08;32.10;;;15.13;;
22282;SDS011;11310;51.528;21.204;2024-03-22T05:38:35;26.63;;;13.60;;
22282;SDS011;11310;51.528;21.204;2024-03-22T05:41:04;27.00;;;14.32;;
22282;SDS011;11310;51.528;21.204;2024-03-22T05:43:31;28.50;;;13.55;;
22282;SDS011;11310;51.528;21.204;2024-03-22T05:45:59;26.55;;;12.57;;
22282;SDS011;11310;51.528;21.204;2024-03-22T05:48:25;27.10;;;13.02;;
22282;SDS011;11310;51.528;21.204;2024-03-22T05:50:55;24.00;;;12.80;;
22282;SDS011;11310;51.528;21.204;2024-03-22T05:53:21;24.52;;;12.70;;
22282;SDS011;11310;51.528;21.204;2024-03-22T05:55:49;26.10;;;12.73;;
22282;SDS011;11310;51.528;21.204;2024-03-22T05:58:15;24.10;;;11.98;;
22282;SDS011;11310;51.528;21.204;2024-03-22T06:00:43;23.77;;;11.52;;
22282;SDS011;11310;51.528;21.204;2024-03-22T06:03:10;23.30;;;11.75;;
22282;SDS011;11310;51.528;21.204;2024-03-22T06:05:38;22.80;;;10.93;;
22282;SDS011;11310;51.528;21.204;2024-03-22T06:08:06;20.35;;;11.57;;
22282;SDS011;11310;51.528;21.204;2024-03-22T06:10:34;23.05;;;11.90;;
22282;SDS011;11310;51.528;21.204;2024-03-22T06:13:00;24.48;;;11.73;;
22282;SDS011;11310;51.528;21.204;2024-03-22T06:15:31;23.88;;;11.63;;
22282;SDS011;11310;51.528;21.204;2024-03-22T06:17:57;21.35;;;11.18;;
22282;SDS011;11310;51.528;21.204;2024-03-22T06:20:25;24.15;;;11.27;;
22282;SDS011;11310;51.528;21.204;2024-03-22T06:22:51;23.70;;;11.27;;
22282;SDS011;11310;51.528;21.204;2024-03-22T06:25:20;21.48;;;10.75;;
22282;SDS011;11310;51.528;21.204;2024-03-22T06:27:47;20.55;;;10.57;;
22282;SDS011;11310;51.528;21.204;2024-03-22T06:30:15;17.92;;;9.77;;
22282;SDS011;11310;51.528;21.204;2024-03-22T06:32:41;19.52;;;9.73;;
22282;SDS011;11310;51.528;21.204;2024-03-22T06:35:08;20.13;;;9.82;;
22282;SDS011;11310;51.528;21.204;2024-03-22T06:37:40;17.85;;;8.05;;
22282;SDS011;11310;51.528;21.204;2024-03-22T06:40:08;19.02;;;8.55;;
22282;SDS011;11310;51.528;21.204;2024-03-22T06:42:37;18.45;;;9.20;;
22282;SDS011;11310;51.528;21.204;2024-03-22T06:45:06;18.23;;;8.25;;
22282;SDS011;11310;51.528;21.204;2024-03-22T06:47:33;17.92;;;8.10;;
22282;SDS011;11310;51.528;21.204;2024-03-22T06:50:00;13.95;;;7.40;;
22282;SDS011;11310;51.528;21.204;2024-03-22T06:52:27;13.07;;;6.75;;
22282;SDS011;11310;51.528;21.204;2024-03-22T06:54:55;18.30;;;7.82;;
22282;SDS011;11310;51.528;21.204;2024-03-22T06:57:22;14.55;;;7.30;;
22282;SDS011;11310;51.528;21.204;2024-03-22T06:59:51;16.30;;;7.55;;
22282;SDS011;11310;51.528;21.204;2024-03-22T07:02:17;13.70;;;6.47;;
22282;SDS011;11310;51.528;21.204;2024-03-22T07:04:45;13.18;;;6.70;;
22282;SDS011;11310;51.528;21.204;2024-03-22T07:07:11;15.07;;;6.68;;
22282;SDS011;11310;51.528;21.204;2024-03-22T07:09:38;14.38;;;6.50;;
22282;SDS011;11310;51.528;21.204;2024-03-22T07:12:05;13.93;;;7.30;;
22282;SDS011;11310;51.528;21.204;2024-03-22T07:14:33;13.85;;;7.10;;
22282;SDS011;11310;51.528;21.204;2024-03-22T07:17:02;16.60;;;8.10;;
22282;SDS011;11310;51.528;21.204;2024-03-22T07:19:29;14.32;;;7.05;;
22282;SDS011;11310;51.528;21.204;2024-03-22T07:21:56;15.23;;;7.30;;
22282;SDS011;11310;51.528;21.204;2024-03-22T07:24:26;13.15;;;6.80;;
22282;SDS011;11310;51.528;21.204;2024-03-22T07:26:53;14.15;;;7.38;;
22282;SDS011;11310;51.528;21.204;2024-03-22T07:29:20;11.38;;;6.03;;
22282;SDS011;11310;51.528;21.204;2024-03-22T07:31:47;13.60;;;6.65;;
22282;SDS011;11310;51.528;21.204;2024-03-22T07:34:16;14.75;;;6.75;;
22282;SDS011;11310;51.528;21.204;2024-03-22T07:36:42;12.73;;;5.93;;
22282;SDS011;11310;51.528;21.204;2024-03-22T07:39:10;13.18;;;6.35;;
22282;SDS011;11310;51.528;21.204;2024-03-22T07:41:37;11.80;;;5.85;;
22282;SDS011;11310;51.528;21.204;2024-03-22T07:44:04;11.77;;;6.10;;
22282;SDS011;11310;51.528;21.204;2024-03-22T07:46:31;15.90;;;6.55;;
22282;SDS011;11310;51.528;21.204;2024-03-22T07:48:59;13.27;;;6.90;;
22282;SDS011;11310;51.528;21.204;2024-03-22T07:51:27;11.23;;;6.00;;
22282;SDS011;11310;51.528;21.204;2024-03-22T07:53:55;15.10;;;6.63;;
22282;SDS011;11310;51.528;21.204;2024-03-22T07:56:22;12.70;;;6.45;;
22282;SDS011;11310;51.528;21.204;2024-03-22T07:58:50;13.30;;;6.95;;
22282;SDS011;11310;51.528;21.204;2024-03-22T08:01:16;12.05;;;6.18;;
22282;SDS011;11310;51.528;21.204;2024-03-22T08:03:44;12.70;;;5.97;;
22282;SDS011;11310;51.528;21.204;2024-03-22T08:06:11;13.50;;;6.95;;
22282;SDS011;11310;51.528;21.204;2024-03-22T08:08:40;12.45;;;5.97;;
22282;SDS011;11310;51.528;21.204;2024-03-22T08:11:06;12.60;;;5.60;;
22282;SDS011;11310;51.528;21.204;2024-03-22T08:13:33;12.60;;;6.50;;
22282;SDS011;11310;51.528;21.204;2024-03-22T08:15:59;13.27;;;5.55;;
22282;SDS011;11310;51.528;21.204;2024-03-22T08:18:27;11.52;;;6.15;;
22282;SDS011;11310;51.528;21.204;2024-03-22T08:20:53;12.60;;;6.15;;
22282;SDS011;11310;51.528;21.204;2024-03-22T08:23:21;9.45;;;5.32;;
22282;SDS011;11310;51.528;21.204;2024-03-22T08:25:50;10.30;;;5.45;;
22282;SDS011;11310;51.528;21.204;2024-03-22T08:28:18;11.95;;;5.93;;
22282;SDS011;11310;51.528;21.204;2024-03-22T08:30:44;12.73;;;5.55;;
22282;SDS011;11310;51.528;21.204;2024-03-22T08:33:12;10.70;;;5.47;;
22282;SDS011;11310;51.528;21.204;2024-03-22T08:35:39;10.98;;;5.53;;
22282;SDS011;11310;51.528;21.204;2024-03-22T08:38:07;12.68;;;5.35;;
22282;SDS011;11310;51.528;21.204;2024-03-22T08:40:36;10.35;;;5.22;;
22282;SDS011;11310;51.528;21.204;2024-03-22T08:43:06;11.43;;;5.63;;
22282;SDS011;11310;51.528;21.204;2024-03-22T08:45:33;11.38;;;5.60;;
22282;SDS011;11310;51.528;21.204;2024-03-22T08:48:00;11.18;;;5.03;;
22282;SDS011;11310;51.528;21.204;2024-03-22T08:50:27;10.77;;;5.30;;
22282;SDS011;11310;51.528;21.204;2024-03-22T08:52:55;8.75;;;4.63;;
22282;SDS011;11310;51.528;21.204;2024-03-22T08:55:21;11.50;;;5.30;;
22282;SDS011;11310;51.528;21.204;2024-03-22T08:57:48;9.95;;;4.50;;
22282;SDS011;11310;51.528;21.204;2024-03-22T09:00:17;11.77;;;5.53;;
22282;SDS011;11310;51.528;21.204;2024-03-22T09:02:47;9.75;;;4.95;;
22282;SDS011;11310;51.528;21.204;2024-03-22T09:05:15;9.85;;;4.88;;
22282;SDS011;11310;51.528;21.204;2024-03-22T09:07:42;10.55;;;5.10;;
22282;SDS011;11310;51.528;21.204;2024-03-22T09:10:09;11.65;;;5.28;;
22282;SDS011;11310;51.528;21.204;2024-03-22T09:12:38;12.05;;;5.72;;
22282;SDS011;11310;51.528;21.204;2024-03-22T09:15:06;10.30;;;5.43;;
22282;SDS011;11310;51.528;21.204;2024-03-22T09:17:35;11.75;;;5.15;;
22282;SDS011;11310;51.528;21.204;2024-03-22T09:20:02;10.23;;;5.35;;
22282;SDS011;11310;51.528;21.204;2024-03-22T09:22:31;10.10;;;5.03;;
22282;SDS011;11310;51.528;21.204;2024-03-22T09:24:58;13.32;;;6.40;;
22282;SDS011;11310;51.528;21.204;2024-03-22T09:27:26;11.30;;;5.68;;
22282;SDS011;11310;51.528;21.204;2024-03-22T09:29:53;14.80;;;5.32;;
22282;SDS011;11310;51.528;21.204;2024-03-22T09:32:21;13.55;;;6.05;;
22282;SDS011;11310;51.528;21.204;2024-03-22T09:34:50;11.38;;;5.65;;
22282;SDS011;11310;51.528;21.204;2024-03-22T09:37:18;10.88;;;5.20;;
22282;SDS011;11310;51.528;21.204;2024-03-22T09:39:44;11.52;;;5.60;;
22282;SDS011;11310;51.528;21.204;2024-03-22T09:42:12;11.07;;;5.72;;
22282;SDS011;11310;51.528;21.204;2024-03-22T09:44:44;9.77;;;5.13;;
22282;SDS011;11310;51.528;21.204;2024-03-22T09:47:14;13.73;;;5.90;;
22282;SDS011;11310;51.528;21.204;2024-03-22T09:49:42;10.48;;;5.47;;
22282;SDS011;11310;51.528;21.204;2024-03-22T09:52:15;11.60;;;5.50;;
22282;SDS011;11310;51.528;21.204;2024-03-22T09:54:45;11.23;;;5.68;;
22282;SDS011;11310;51.528;21.204;2024-03-22T09:57:17;11.80;;;5.97;;
22282;SDS011;11310;51.528;21.204;2024-03-22T09:59:45;13.82;;;6.00;;
22282;SDS011;11310;51.528;21.204;2024-03-22T10:02:16;11.90;;;6.05;;
22282;SDS011;11310;51.528;21.204;2024-03-22T10:04:46;12.35;;;6.78;;
22282;SDS011;11310;51.528;21.204;2024-03-22T10:07:15;11.50;;;5.88;;
22282;SDS011;11310;51.528;21.204;2024-03-22T10:09:42;12.77;;;6.90;;
22282;SDS011;11310;51.528;21.204;2024-03-22T10:12:10;13.18;;;6.47;;
22282;SDS011;11310;51.528;21.204;2024-03-22T10:14:37;12.15;;;6.43;;
22282;SDS011;11310;51.528;21.204;2024-03-22T10:17:08;12.48;;;6.60;;
22282;SDS011;11310;51.528;21.204;2024-03-22T10:19:34;11.85;;;6.35;;
22282;SDS011;11310;51.528;21.204;2024-03-22T10:22:02;13.07;;;6.55;;
22282;SDS011;11310;51.528;21.204;2024-03-22T10:24:31;12.15;;;6.65;;
22282;SDS011;11310;51.528;21.204;2024-03-22T10:26:59;14.35;;;6.45;;
22282;SDS011;11310;51.528;21.204;2024-03-22T10:29:27;13.85;;;7.10;;
22282;SDS011;11310;51.528;21.204;2024-03-22T10:31:55;13.30;;;6.32;;
22282;SDS011;11310;51.528;21.204;2024-03-22T10:34:21;13.27;;;7.13;;
22282;SDS011;11310;51.528;21.204;2024-03-22T10:36:51;12.48;;;6.63;;
22282;SDS011;11310;51.528;21.204;2024-03-22T10:39:18;13.75;;;6.78;;
22282;SDS011;11310;51.528;21.204;2024-03-22T10:41:47;16.83;;;7.22;;
22282;SDS011;11310;51.528;21.204;2024-03-22T10:44:15;14.48;;;7.18;;
22282;SDS011;11310;51.528;21.204;2024-03-22T10:46:43;14.35;;;6.90;;
22282;SDS011;11310;51.528;21.204;2024-03-22T10:49:12;11.52;;;6.28;;
22282;SDS011;11310;51.528;21.204;2024-03-22T10:51:44;12.32;;;6.80;;
22282;SDS011;11310;51.528;21.204;2024-03-22T10:54:16;13.10;;;6.60;;
22282;SDS011;11310;51.528;21.204;2024-03-22T10:56:48;11.38;;;5.95;;
22282;SDS011;11310;51.528;21.204;2024-03-22T10:59:18;15.57;;;7.07;;
22282;SDS011;11310;51.528;21.204;2024-03-22T11:01:46;12.02;;;5.90;;
22282;SDS011;11310;51.528;21.204;2024-03-22T11:04:15;12.70;;;6.50;;
22282;SDS011;11310;51.528;21.204;2024-03-22T11:06:47;10.63;;;6.15;;
22282;SDS011;11310;51.528;21.204;2024-03-22T11:09:18;12.60;;;6.10;;
22282;SDS011;11310;51.528;21.204;2024-03-22T11:11:50;12.60;;;7.22;;
22282;SDS011;11310;51.528;21.204;2024-03-22T11:14:18;13.60;;;7.25;;
22282;SDS011;11310;51.528;21.204;2024-03-22T11:16:47;12.95;;;7.00;;
22282;SDS011;11310;51.528;21.204;2024-03-22T11:19:14;13.68;;;7.05;;
22282;SDS011;11310;51.528;21.204;2024-03-22T11:21:42;12.65;;;6.88;;
22282;SDS011;11310;51.528;21.204;2024-03-22T11:24:09;11.20;;;6.38;;
22282;SDS011;11310;51.528;21.204;2024-03-22T11:26:37;16.02;;;7.75;;
22282;SDS011;11310;51.528;21.204;2024-03-22T11:29:05;13.25;;;7.13;;
22282;SDS011;11310;51.528;21.204;2024-03-22T11:31:34;12.75;;;6.82;;
22282;SDS011;11310;51.528;21.204;2024-03-22T11:34:00;13.68;;;7.43;;
22282;SDS011;11310;51.528;21.204;2024-03-22T11:36:29;15.07;;;6.95;;
22282;SDS011;11310;51.528;21.204;2024-03-22T11:38:56;13.18;;;6.90;;
22282;SDS011;11310;51.528;21.204;2024-03-22T11:41:24;17.58;;;8.27;;
22282;SDS011;11310;51.528;21.204;2024-03-22T11:43:55;16.23;;;8.57;;
22282;SDS011;11310;51.528;21.204;2024-03-22T11:46:27;14.13;;;7.07;;
22282;SDS011;11310;51.528;21.204;2024-03-22T11:48:54;15.65;;;7.25;;
22282;SDS011;11310;51.528;21.204;2024-03-22T11:51:22;13.60;;;7.75;;
22282;SDS011;11310;51.528;21.204;2024-03-22T11:53:49;13.60;;;6.53;;
22282;SDS011;11310;51.528;21.204;2024-03-22T11:56:18;12.07;;;6.85;;
22282;SDS011;11310;51.528;21.204;2024-03-22T11:58:45;16.33;;;7.28;;
22282;SDS011;11310;51.528;21.204;2024-03-22T12:01:15;13.95;;;7.70;;
22282;SDS011;11310;51.528;21.204;2024-03-22T12:03:44;12.73;;;7.07;;
22282;SDS011;11310;51.528;21.204;2024-03-22T12:06:13;17.80;;;8.38;;
22282;SDS011;11310;51.528;21.204;2024-03-22T12:08:41;16.00;;;8.60;;
22282;SDS011;11310;51.528;21.204;2024-03-22T12:11:09;15.65;;;8.18;;
22282;SDS011;11310;51.528;21.204;2024-03-22T12:13:37;15.32;;;7.43;;
22282;SDS011;11310;51.528;21.204;2024-03-22T12:16:05;13.45;;;7.32;;
22282;SDS011;11310;51.528;21.204;2024-03-22T12:18:31;12.23;;;6.97;;
22282;SDS011;11310;51.528;21.204;2024-03-22T12:21:01;15.98;;;7.65;;
22282;SDS011;11310;51.528;21.204;2024-03-22T12:23:28;14.15;;;6.78;;
22282;SDS011;11310;51.528;21.204;2024-03-22T12:25:55;13.00;;;6.53;;
22282;SDS011;11310;51.528;21.204;2024-03-22T12:28:22;13.82;;;6.78;;
22282;SDS011;11310;51.528;21.204;2024-03-22T12:30:49;13.40;;;7.55;;
22282;SDS011;11310;51.528;21.204;2024-03-22T12:33:16;12.98;;;7.03;;
22282;SDS011;11310;51.528;21.204;2024-03-22T12:35:44;11.75;;;7.20;;
22282;SDS011;11310;51.528;21.204;2024-03-22T12:38:12;13.88;;;6.80;;
22282;SDS011;11310;51.528;21.204;2024-03-22T12:40:40;15.05;;;6.20;;
22282;SDS011;11310;51.528;21.204;2024-03-22T12:43:08;13.65;;;6.47;;
22282;SDS011;11310;51.528;21.204;2024-03-22T12:45:37;11.55;;;6.55;;
22282;SDS011;11310;51.528;21.204;2024-03-22T12:48:04;12.00;;;6.10;;
22282;SDS011;11310;51.528;21.204;2024-03-22T12:50:32;12.35;;;6.10;;
22282;SDS011;11310;51.528;21.204;2024-03-22T12:52:59;11.77;;;6.30;;
22282;SDS011;11310;51.528;21.204;2024-03-22T12:55:28;12.00;;;5.78;;
22282;SDS011;11310;51.528;21.204;2024-03-22T12:58:00;10.05;;;5.38;;
22282;SDS011;11310;51.528;21.204;2024-03-22T13:00:27;10.40;;;5.10;;
22282;SDS011;11310;51.528;21.204;2024-03-22T13:02:53;9.75;;;5.38;;
22282;SDS011;11310;51.528;21.204;2024-03-22T13:05:21;11.23;;;6.13;;
22282;SDS011;11310;51.528;21.204;2024-03-22T13:07:48;10.07;;;5.32;;
22282;SDS011;11310;51.528;21.204;2024-03-22T13:10:15;9.85;;;5.00;;
22282;SDS011;11310;51.528;21.204;2024-03-22T13:12:44;10.70;;;5.53;;
22282;SDS011;11310;51.528;21.204;2024-03-22T13:15:13;12.43;;;5.87;;
22282;SDS011;11310;51.528;21.204;2024-03-22T13:17:40;9.35;;;4.90;;
22282;SDS011;11310;51.528;21.204;2024-03-22T13:20:08;10.40;;;5.60;;
22282;SDS011;11310;51.528;21.204;2024-03-22T13:22:36;10.73;;;6.07;;
22282;SDS011;11310;51.528;21.204;2024-03-22T13:25:04;10.95;;;5.57;;
22282;SDS011;11310;51.528;21.204;2024-03-22T13:27:33;11.63;;;6.03;;
22282;SDS011;11310;51.528;21.204;2024-03-22T13:30:04;11.85;;;5.97;;
22282;SDS011;11310;51.528;21.204;2024-03-22T13:32:31;11.00;;;5.20;;
22282;SDS011;11310;51.528;21.204;2024-03-22T13:34:58;9.60;;;4.80;;
22282;SDS011;11310;51.528;21.204;2024-03-22T13:37:25;10.55;;;5.53;;
22282;SDS011;11310;51.528;21.204;2024-03-22T13:39:52;10.95;;;4.93;;
22282;SDS011;11310;51.528;21.204;2024-03-22T13:42:20;10.73;;;4.88;;
22282;SDS011;11310;51.528;21.204;2024-03-22T13:44:49;9.75;;;5.32;;
22282;SDS011;11310;51.528;21.204;2024-03-22T13:47:18;11.43;;;5.53;;
22282;SDS011;11310;51.528;21.204;2024-03-22T13:49:48;12.43;;;5.07;;
22282;SDS011;11310;51.528;21.204;2024-03-22T13:52:15;10.05;;;5.10;;
22282;SDS011;11310;51.528;21.204;2024-03-22T13:54:44;10.07;;;5.38;;
22282;SDS011;11310;51.528;21.204;2024-03-22T13:57:10;8.25;;;4.60;;
22282;SDS011;11310;51.528;21.204;2024-03-22T13:59:40;12.23;;;5.13;;
22282;SDS011;11310;51.528;21.204;2024-03-22T14:02:06;9.35;;;4.63;;
22282;SDS011;11310;51.528;21.204;2024-03-22T14:04:35;14.27;;;6.05;;
22282;SDS011;11310;51.528;21.204;2024-03-22T14:07:02;10.45;;;4.55;;
22282;SDS011;11310;51.528;21.204;2024-03-22T14:09:30;9.68;;;5.32;;
22282;SDS011;11310;51.528;21.204;2024-03-22T14:11:57;11.48;;;5.38;;
22282;SDS011;11310;51.528;21.204;2024-03-22T14:14:26;11.30;;;5.50;;
22282;SDS011;11310;51.528;21.204;2024-03-22T14:16:53;14.13;;;6.50;;
22282;SDS011;11310;51.528;21.204;2024-03-22T14:19:24;11.80;;;6.27;;